Time;durP1;ratioP1;P1;durP2;ratioP2;P2;SDS_P1;SDS_P2;PMS_P1;PMS_P2;Temp;Humidity;BMP_temperature;BMP_pressure;BME280_temperature;BME280_humidity;BME280_pressure;Samples;Min_cycle;Max_cycle;Signal;HPM_P1;HPM_P2
2021/12/23 00:02:11;;;;;;;39.70;21.63;;;4.90;96.60;;;;;;5047491;28;20114;-62
2021/12/23 00:04:38;;;;;;;34.08;20.73;;;4.80;96.80;;;;;;5047585;28;20045;-63
2021/12/23 00:07:05;;;;;;;39.33;20.65;;;4.80;96.50;;;;;;5047993;28;20084;-62
2021/12/23 00:10:01;;;;;;;34.90;18.67;;;4.80;96.40;;;;;;5047977;28;20080;-62
2021/12/23 00:12:18;;;;;;;36.22;19.65;;;4.80;96.50;;;;;;5047137;28;20037;-63
2021/12/23 00:14:46;;;;;;;36.38;20.30;;;4.90;96.50;;;;;;5047565;28;20411;-62
2021/12/23 00:25:21;;;;;;;36.10;18.83;;;4.90;96.40;;;;;;5045300;28;20044;-62
2021/12/23 00:27:48;;;;;;;36.53;20.58;;;4.90;96.30;;;;;;5046495;28;20072;-61
2021/12/23 00:30:15;;;;;;;38.33;21.33;;;4.90;96.40;;;;;;5039024;28;20045;-61
2021/12/23 00:32:41;;;;;;;35.83;20.58;;;4.90;96.40;;;;;;5044814;28;20258;-62
2021/12/23 00:35:09;;;;;;;36.92;20.52;;;4.90;96.70;;;;;;5045714;28;20688;-62
2021/12/23 00:37:43;;;;;;;37.47;18.63;;;4.90;96.40;;;;;;5045300;28;20056;-61
2021/12/23 00:40:10;;;;;;;42.03;20.38;;;5.00;96.40;;;;;;5043450;28;20493;-62
2021/12/23 00:42:37;;;;;;;37.60;19.92;;;5.00;96.40;;;;;;5043714;28;20115;-62
2021/12/23 00:45:05;;;;;;;37.60;19.83;;;5.00;96.40;;;;;;5024478;28;20082;-61
2021/12/23 00:47:32;;;;;;;36.65;18.48;;;5.00;96.40;;;;;;5045180;28;20528;-61
2021/12/23 00:49:59;;;;;;;32.13;18.65;;;5.00;96.40;;;;;;5047078;28;20464;-63
2021/12/23 00:52:33;;;;;;;33.92;18.80;;;5.10;96.40;;;;;;5046333;28;20045;-62
2021/12/23 00:55:00;;;;;;;35.25;18.63;;;5.00;96.50;;;;;;5047168;28;20086;-62
2021/12/23 00:57:30;;;;;;;34.33;19.92;;;5.10;96.50;;;;;;5046458;28;20073;-63
2021/12/23 00:59:58;;;;;;;36.00;18.20;;;5.10;96.50;;;;;;5046593;28;20049;-62
2021/12/23 01:02:31;;;;;;;33.65;18.92;;;5.10;96.50;;;;;;5050853;28;20095;-63
2021/12/23 01:04:59;;;;;;;35.53;17.33;;;5.10;96.60;;;;;;5043143;28;20124;-62
2021/12/23 01:07:26;;;;;;;35.22;19.75;;;5.20;96.50;;;;;;5049504;28;20045;-61
2021/12/23 01:09:53;;;;;;;39.55;18.40;;;5.20;96.50;;;;;;5049545;28;20052;-61
2021/12/23 01:12:25;;;;;;;39.20;19.60;;;5.20;96.50;;;;;;5050634;28;20045;-62
2021/12/23 01:14:56;;;;;;;36.67;19.15;;;5.20;96.50;;;;;;5050056;28;20106;-61
2021/12/23 01:17:31;;;;;;;37.63;17.60;;;5.20;96.50;;;;;;5050856;28;20045;-61
2021/12/23 01:20:01;;;;;;;36.17;19.58;;;5.30;96.50;;;;;;5050350;28;20079;-61
2021/12/23 01:22:28;;;;;;;33.97;18.70;;;5.30;96.60;;;;;;5050787;28;20076;-62
2021/12/23 01:24:54;;;;;;;36.80;19.50;;;5.30;96.50;;;;;;5050610;28;20041;-61
2021/12/23 01:27:21;;;;;;;33.33;17.38;;;5.30;96.50;;;;;;5050175;28;20059;-62
2021/12/23 01:29:48;;;;;;;35.75;18.23;;;5.30;96.50;;;;;;5050818;28;20045;-61
2021/12/23 01:32:15;;;;;;;32.97;18.90;;;5.30;96.50;;;;;;5050452;28;20049;-61
2021/12/23 01:34:41;;;;;;;33.92;18.60;;;5.30;96.50;;;;;;5048420;28;20060;-62
2021/12/23 01:37:08;;;;;;;37.33;18.55;;;5.30;96.50;;;;;;5050510;28;20053;-62
2021/12/23 01:39:35;;;;;;;36.67;19.77;;;5.30;96.50;;;;;;5050248;28;20443;-63
2021/12/23 01:42:02;;;;;;;32.28;18.80;;;5.40;96.50;;;;;;5049929;28;20577;-61
2021/12/23 01:44:31;;;;;;;34.35;19.58;;;5.30;96.50;;;;;;5049914;28;20101;-61
2021/12/23 01:46:57;;;;;;;33.70;19.00;;;5.40;96.60;;;;;;5050075;28;20049;-62
2021/12/23 01:49:24;;;;;;;30.73;17.30;;;5.40;96.60;;;;;;5048493;28;20090;-62
2021/12/23 01:51:51;;;;;;;33.30;18.08;;;5.40;96.60;;;;;;5044750;28;20045;-62
2021/12/23 01:54:18;;;;;;;32.72;17.38;;;5.40;96.60;;;;;;5049632;28;20080;-62
2021/12/23 01:56:44;;;;;;;29.40;17.27;;;5.40;96.60;;;;;;5049861;28;20568;-62
2021/12/23 01:59:11;;;;;;;34.38;18.33;;;5.40;96.60;;;;;;4699346;28;10000601;-62
2021/12/23 02:01:41;;;;;;;35.60;18.60;;;5.40;96.60;;;;;;5048277;28;20045;-62
2021/12/23 02:04:08;;;;;;;30.38;17.02;;;5.50;96.90;;;;;;5050065;28;20041;-62
2021/12/23 02:06:35;;;;;;;31.50;16.27;;;5.50;96.70;;;;;;5049522;28;20049;-62
2021/12/23 02:09:03;;;;;;;35.55;18.40;;;5.50;96.70;;;;;;5048287;28;20049;-62
2021/12/23 02:11:30;;;;;;;35.85;18.17;;;5.50;96.70;;;;;;5049445;28;20614;-62
2021/12/23 02:13:57;;;;;;;40.42;18.05;;;5.50;96.80;;;;;;5049320;28;20080;-63
2021/12/23 02:16:24;;;;;;;37.67;18.08;;;5.50;96.80;;;;;;5048364;28;20056;-62
2021/12/23 02:18:51;;;;;;;32.10;17.05;;;5.60;96.80;;;;;;5049818;28;20053;-62
2021/12/23 02:21:18;;;;;;;32.22;17.88;;;5.60;96.80;;;;;;5048900;28;20111;-62
2021/12/23 02:23:44;;;;;;;34.38;17.98;;;5.60;96.80;;;;;;5048511;28;20099;-62
2021/12/23 02:26:11;;;;;;;34.22;18.10;;;5.60;96.80;;;;;;5047957;28;20089;-62
2021/12/23 02:28:38;;;;;;;31.55;17.42;;;5.60;96.80;;;;;;5048309;28;20099;-62
2021/12/23 02:31:05;;;;;;;35.22;18.92;;;5.60;96.80;;;;;;5047739;28;20049;-62
2021/12/23 02:33:34;;;;;;;37.47;18.42;;;5.70;97.00;;;;;;5045752;28;20048;-62
2021/12/23 02:36:01;;;;;;;36.75;18.42;;;5.70;97.10;;;;;;5049129;28;20110;-62
2021/12/23 02:38:28;;;;;;;32.08;17.25;;;5.70;96.90;;;;;;5049105;28;20057;-62
2021/12/23 02:40:55;;;;;;;31.85;17.70;;;5.70;96.80;;;;;;5049111;28;20049;-62
2021/12/23 02:43:23;;;;;;;40.55;19.63;;;5.70;97.00;;;;;;5047553;28;20058;-62
2021/12/23 02:45:52;;;;;;;34.33;18.55;;;5.70;96.90;;;;;;5047565;28;20041;-62
2021/12/23 02:48:24;;;;;;;33.15;18.73;;;5.70;97.00;;;;;;5048868;28;20057;-63
2021/12/23 02:50:54;;;;;;;33.17;18.33;;;5.70;97.00;;;;;;5041910;28;20188;-62
2021/12/23 02:53:20;;;;;;;33.53;17.33;;;5.70;97.10;;;;;;5048788;28;20041;-62
2021/12/23 02:55:48;;;;;;;37.17;17.15;;;5.60;97.20;;;;;;5048742;28;20053;-62
2021/12/23 02:58:14;;;;;;;31.88;18.85;;;5.70;97.20;;;;;;5049381;28;20080;-62
2021/12/23 03:00:42;;;;;;;33.83;17.95;;;5.70;97.20;;;;;;5047857;28;20106;-61
2021/12/23 03:03:09;;;;;;;34.80;18.70;;;5.70;97.30;;;;;;5048691;28;20049;-62
2021/12/23 03:05:36;;;;;;;39.25;19.27;;;5.70;97.40;;;;;;5048745;28;20466;-62
2021/12/23 03:08:03;;;;;;;43.13;20.75;;;5.80;97.60;;;;;;5048438;28;20404;-62
2021/12/23 03:10:30;;;;;;;36.35;19.05;;;5.80;97.50;;;;;;5048626;28;20106;-62
2021/12/23 03:12:57;;;;;;;37.45;19.52;;;5.90;97.40;;;;;;5048126;28;20084;-62
2021/12/23 03:15:23;;;;;;;34.00;18.52;;;5.80;97.60;;;;;;5048445;28;20074;-63
2021/12/23 03:17:50;;;;;;;36.17;20.73;;;5.90;97.60;;;;;;5048229;28;20183;-62
2021/12/23 03:20:17;;;;;;;39.25;19.25;;;5.90;97.70;;;;;;5048161;28;20072;-62
2021/12/23 03:22:44;;;;;;;38.47;19.50;;;5.90;98.00;;;;;;5047327;28;20484;-62
2021/12/23 03:25:11;;;;;;;38.05;19.95;;;6.00;97.80;;;;;;5046819;28;20041;-62
2021/12/23 03:27:38;;;;;;;33.83;19.25;;;5.90;97.80;;;;;;5048200;28;20049;-62
2021/12/23 03:30:05;;;;;;;41.85;22.10;;;5.90;97.90;;;;;;5048013;28;20397;-62
2021/12/23 03:32:32;;;;;;;38.05;20.65;;;6.00;97.90;;;;;;5040822;28;20118;-62
2021/12/23 03:34:59;;;;;;;40.88;20.70;;;6.00;98.10;;;;;;5048466;28;20073;-62
2021/12/23 03:37:26;;;;;;;38.75;20.42;;;6.00;98.10;;;;;;5046324;28;20136;-62
2021/12/23 03:39:53;;;;;;;35.75;20.50;;;6.00;98.10;;;;;;5048141;28;20218;-62
2021/12/23 03:42:20;;;;;;;38.65;20.60;;;6.00;98.20;;;;;;5046328;28;20056;-62
2021/12/23 03:44:47;;;;;;;44.25;22.33;;;6.00;98.20;;;;;;5046771;28;20060;-62
2021/12/23 03:47:14;;;;;;;40.70;21.85;;;6.10;98.10;;;;;;5046448;28;20339;-62
2021/12/23 03:49:40;;;;;;;44.42;21.85;;;6.10;98.20;;;;;;5047950;28;20041;-62
2021/12/23 03:52:07;;;;;;;44.13;21.45;;;6.10;98.20;;;;;;5046139;28;20071;-62
2021/12/23 03:54:34;;;;;;;37.63;19.63;;;6.10;98.20;;;;;;5047613;28;20044;-62
2021/12/23 03:57:01;;;;;;;41.38;22.08;;;6.10;98.20;;;;;;5047725;28;20044;-62
2021/12/23 03:59:28;;;;;;;39.42;22.73;;;6.10;98.30;;;;;;5048128;28;20053;-61
2021/12/23 04:01:54;;;;;;;43.15;22.60;;;6.10;98.60;;;;;;5044238;28;20100;-61
2021/12/23 04:04:21;;;;;;;56.90;24.48;;;6.10;98.60;;;;;;5035351;28;20393;-61
2021/12/23 04:06:48;;;;;;;41.65;21.17;;;6.20;98.70;;;;;;5046413;28;20044;-60
2021/12/23 04:09:15;;;;;;;42.75;22.17;;;6.20;98.70;;;;;;5048169;28;20048;-62
2021/12/23 04:11:42;;;;;;;44.90;21.52;;;6.20;98.70;;;;;;5047563;28;20087;-61
2021/12/23 04:14:08;;;;;;;50.00;22.63;;;6.20;99.00;;;;;;5046037;28;20037;-61
2021/12/23 04:16:35;;;;;;;47.35;23.75;;;6.30;98.90;;;;;;5047644;28;20171;-61
2021/12/23 04:19:06;;;;;;;46.53;23.70;;;6.30;98.80;;;;;;5047133;28;20506;-62
2021/12/23 04:21:35;;;;;;;43.50;23.70;;;6.30;98.80;;;;;;5047358;28;20124;-62
2021/12/23 04:24:02;;;;;;;46.90;24.35;;;6.30;98.80;;;;;;5046985;28;20045;-62
2021/12/23 04:26:29;;;;;;;46.58;23.25;;;6.30;98.90;;;;;;5047922;28;20078;-61
2021/12/23 04:28:56;;;;;;;38.25;21.40;;;6.30;98.90;;;;;;5047025;28;20087;-61
2021/12/23 04:31:23;;;;;;;51.60;24.27;;;6.30;99.00;;;;;;5047380;28;20044;-61
2021/12/23 04:33:50;;;;;;;38.97;22.67;;;6.40;99.00;;;;;;5047083;28;20052;-62
2021/12/23 04:36:17;;;;;;;43.47;22.75;;;6.40;99.00;;;;;;5047145;28;20053;-62
2021/12/23 04:38:45;;;;;;;45.25;23.50;;;6.40;99.00;;;;;;5045967;28;20049;-61
2021/12/23 04:41:12;;;;;;;43.10;22.92;;;6.50;98.90;;;;;;5045637;28;20072;-61
2021/12/23 04:43:39;;;;;;;44.58;22.92;;;6.50;99.10;;;;;;5047478;28;20080;-61
2021/12/23 04:46:06;;;;;;;45.40;22.55;;;6.40;99.20;;;;;;5047000;28;20084;-61
2021/12/23 04:48:33;;;;;;;56.22;23.27;;;6.50;99.30;;;;;;5047294;28;20056;-61
2021/12/23 04:51:00;;;;;;;50.40;24.40;;;6.50;99.10;;;;;;5046885;28;20068;-61
2021/12/23 04:53:26;;;;;;;46.78;23.70;;;6.50;99.20;;;;;;5045677;28;20072;-61
2021/12/23 04:55:53;;;;;;;50.78;24.13;;;6.50;99.30;;;;;;5046657;28;20080;-61
2021/12/23 04:58:20;;;;;;;47.40;22.60;;;6.50;99.30;;;;;;5046887;28;20119;-61
2021/12/23 05:00:48;;;;;;;54.30;25.48;;;6.50;99.40;;;;;;5045981;28;20057;-60
2021/12/23 05:03:16;;;;;;;49.22;23.58;;;6.50;99.60;;;;;;5045589;28;20549;-61
2021/12/23 05:05:43;;;;;;;51.35;24.75;;;6.50;99.50;;;;;;5037511;28;20080;-61
2021/12/23 05:08:10;;;;;;;47.40;23.25;;;6.40;99.60;;;;;;5046995;28;20129;-61
2021/12/23 05:10:37;;;;;;;56.05;24.33;;;6.50;99.50;;;;;;5037416;28;20080;-61
2021/12/23 05:13:04;;;;;;;55.47;24.80;;;6.50;99.60;;;;;;5047303;28;20052;-61
2021/12/23 05:15:31;;;;;;;45.15;22.30;;;6.50;99.60;;;;;;5046680;28;20037;-61
2021/12/23 05:17:58;;;;;;;52.85;24.70;;;6.60;99.50;;;;;;5046765;28;20095;-61
2021/12/23 05:20:27;;;;;;;60.38;26.42;;;6.50;99.50;;;;;;5046360;28;20111;-60
2021/12/23 05:22:54;;;;;;;54.63;24.52;;;6.60;99.70;;;;;;5047008;28;20103;-61
2021/12/23 05:25:21;;;;;;;62.00;25.55;;;6.60;99.70;;;;;;5045226;28;20052;-61
2021/12/23 05:27:48;;;;;;;60.08;25.02;;;6.60;99.70;;;;;;5046770;28;20052;-62
2021/12/23 05:30:16;;;;;;;45.45;23.65;;;6.60;99.80;;;;;;5047339;28;20049;-61
2021/12/23 05:32:43;;;;;;;49.47;23.73;;;6.60;99.80;;;;;;5046502;28;20566;-61
2021/12/23 05:35:11;;;;;;;55.50;23.83;;;6.60;99.80;;;;;;5046834;28;20497;-61
2021/12/23 05:37:37;;;;;;;58.88;25.35;;;6.70;99.90;;;;;;5045114;28;20122;-61
2021/12/23 05:40:05;;;;;;;50.75;24.45;;;6.70;99.90;;;;;;5046716;28;20070;-61
2021/12/23 05:42:32;;;;;;;46.00;24.38;;;6.70;99.90;;;;;;5046334;28;20080;-61
2021/12/23 05:44:58;;;;;;;52.45;24.42;;;6.70;99.90;;;;;;5047141;28;20056;-60
2021/12/23 05:47:25;;;;;;;48.92;22.40;;;6.70;99.90;;;;;;5048148;28;20053;-61
2021/12/23 05:49:52;;;;;;;57.28;24.55;;;6.70;99.90;;;;;;5050092;28;20080;-60
2021/12/23 05:52:19;;;;;;;50.03;23.70;;;6.80;99.90;;;;;;5050605;28;20094;-61
2021/12/23 05:54:45;;;;;;;49.58;22.17;;;6.80;99.90;;;;;;5049937;28;20045;-61
2021/12/23 05:57:12;;;;;;;56.78;23.52;;;6.80;99.90;;;;;;5049490;28;20044;-62
2021/12/23 05:59:39;;;;;;;45.28;21.05;;;6.80;99.90;;;;;;5050055;28;20049;-61
2021/12/23 06:02:06;;;;;;;55.40;24.08;;;6.80;99.90;;;;;;5048796;28;20742;-62
2021/12/23 06:04:34;;;;;;;48.67;21.02;;;6.80;99.90;;;;;;5046335;28;20535;-62
2021/12/23 06:07:01;;;;;;;40.20;22.00;;;6.90;99.90;;;;;;5049511;28;20111;-61
2021/12/23 06:09:28;;;;;;;51.30;21.58;;;6.90;99.90;;;;;;5049854;28;20476;-62
2021/12/23 06:11:55;;;;;;;55.53;21.67;;;6.90;99.90;;;;;;5049186;28;20102;-62
2021/12/23 06:14:22;;;;;;;43.38;23.15;;;7.00;99.90;;;;;;5047419;28;20546;-62
2021/12/23 06:16:49;;;;;;;43.30;22.67;;;7.00;99.90;;;;;;5049350;28;20110;-62
2021/12/23 06:19:15;;;;;;;43.50;21.90;;;7.00;99.90;;;;;;5049138;28;20087;-62
2021/12/23 06:21:43;;;;;;;44.38;21.83;;;7.00;99.90;;;;;;5049103;28;20080;-62
2021/12/23 06:24:09;;;;;;;44.03;24.75;;;7.00;99.90;;;;;;5047909;28;20084;-62
2021/12/23 06:26:36;;;;;;;42.03;22.58;;;7.10;99.90;;;;;;5042509;28;20496;-62
2021/12/23 06:29:03;;;;;;;45.80;22.67;;;7.10;99.90;;;;;;5049253;28;20087;-62
2021/12/23 06:31:30;;;;;;;47.00;23.80;;;7.10;99.90;;;;;;5048944;28;20098;-63
2021/12/23 06:33:57;;;;;;;55.70;23.95;;;7.20;99.90;;;;;;5048990;28;20130;-62
2021/12/23 06:36:24;;;;;;;53.47;23.23;;;7.20;99.90;;;;;;5048579;28;20103;-62
2021/12/23 06:38:50;;;;;;;43.55;20.80;;;7.20;99.90;;;;;;5048950;28;20075;-62
2021/12/23 06:41:18;;;;;;;45.80;22.55;;;7.20;99.90;;;;;;5048603;28;20072;-62
2021/12/23 06:43:45;;;;;;;47.08;22.70;;;7.30;99.90;;;;;;5048154;28;20052;-62
2021/12/23 06:46:12;;;;;;;39.50;22.27;;;7.30;99.90;;;;;;5048524;28;20108;-62
2021/12/23 06:48:39;;;;;;;46.97;22.88;;;7.30;99.90;;;;;;5047932;28;20049;-62
2021/12/23 06:51:06;;;;;;;46.95;22.33;;;7.30;99.90;;;;;;5048699;28;20041;-62
2021/12/23 06:53:32;;;;;;;48.97;22.98;;;7.30;99.90;;;;;;5048518;28;20102;-62
2021/12/23 06:56:00;;;;;;;48.15;24.55;;;7.30;99.90;;;;;;5048544;28;20049;-62
2021/12/23 06:58:27;;;;;;;43.92;21.85;;;7.30;99.90;;;;;;5047407;28;20431;-62
2021/12/23 07:00:54;;;;;;;44.75;23.20;;;7.40;99.90;;;;;;5048827;28;20052;-63
2021/12/23 07:03:24;;;;;;;50.08;21.65;;;7.40;99.90;;;;;;5048547;28;20143;-62
2021/12/23 07:05:57;;;;;;;53.80;24.77;;;7.40;99.90;;;;;;5046257;28;20046;-62
2021/12/23 07:08:27;;;;;;;50.35;23.00;;;7.70;99.90;;;;;;5041929;28;20041;-62
2021/12/23 07:10:54;;;;;;;38.95;20.88;;;7.40;99.90;;;;;;5044854;28;20385;-62
2021/12/23 07:13:24;;;;;;;40.05;21.30;;;7.50;99.90;;;;;;5047085;28;20045;-62
2021/12/23 07:15:51;;;;;;;48.10;20.73;;;7.50;99.90;;;;;;5046692;28;20056;-63
2021/12/23 07:18:18;;;;;;;46.47;19.50;;;7.50;99.90;;;;;;5047631;28;20060;-63
2021/12/23 07:20:45;;;;;;;41.83;21.23;;;7.50;99.90;;;;;;5042492;28;20049;-65
2021/12/23 07:23:15;;;;;;;40.45;21.02;;;7.50;99.90;;;;;;5044818;28;20045;-62
2021/12/23 07:25:42;;;;;;;37.63;21.08;;;7.50;99.90;;;;;;5046409;28;20045;-62
2021/12/23 07:28:09;;;;;;;43.90;19.27;;;7.50;99.90;;;;;;5047031;28;20037;-62
2021/12/23 07:30:36;;;;;;;45.92;20.88;;;7.50;99.90;;;;;;5045161;28;20287;-62
2021/12/23 07:33:03;;;;;;;33.25;18.63;;;7.60;99.90;;;;;;5047743;28;20045;-62
2021/12/23 07:35:30;;;;;;;41.08;20.25;;;7.60;99.90;;;;;;5046279;28;20439;-62
2021/12/23 07:38:01;;;;;;;32.00;18.13;;;7.60;99.90;;;;;;5047345;28;20080;-61
2021/12/23 07:40:29;;;;;;;34.97;19.45;;;7.60;99.90;;;;;;5047547;28;20088;-62
2021/12/23 07:43:09;;;;;;;45.65;23.60;;;7.60;99.90;;;;;;5046548;28;20053;-63
2021/12/23 07:45:37;;;;;;;30.80;16.73;;;7.70;99.90;;;;;;5047130;28;20040;-62
2021/12/23 07:48:04;;;;;;;35.63;19.50;;;7.70;99.90;;;;;;5045140;28;20122;-62
2021/12/23 07:50:31;;;;;;;37.88;19.02;;;7.70;99.90;;;;;;5047252;28;20554;-62
2021/12/23 07:52:58;;;;;;;31.85;18.38;;;7.70;99.90;;;;;;5047110;28;20077;-62
2021/12/23 07:55:24;;;;;;;40.78;21.65;;;7.70;99.90;;;;;;5047613;28;20076;-63
2021/12/23 07:57:51;;;;;;;30.98;19.20;;;7.70;99.90;;;;;;5047539;28;20520;-62
2021/12/23 08:00:18;;;;;;;43.72;20.80;;;7.70;99.90;;;;;;5040127;28;20060;-63
2021/12/23 08:02:45;;;;;;;43.95;20.20;;;7.70;99.90;;;;;;5046850;28;20045;-63
2021/12/23 08:05:12;;;;;;;43.35;19.40;;;7.70;99.90;;;;;;5047065;28;20047;-62
2021/12/23 08:07:39;;;;;;;38.08;18.67;;;7.70;99.90;;;;;;5047008;28;20041;-62
2021/12/23 08:10:06;;;;;;;35.30;20.52;;;7.70;99.90;;;;;;5046955;28;20087;-62
2021/12/23 08:12:33;;;;;;;32.72;19.35;;;7.70;99.90;;;;;;5042259;28;20103;-62
2021/12/23 08:15:00;;;;;;;39.78;19.05;;;7.70;99.90;;;;;;5047008;28;20114;-62
2021/12/23 08:17:35;;;;;;;31.90;18.58;;;7.70;99.90;;;;;;5041945;28;20064;-62
2021/12/23 08:20:07;;;;;;;35.50;18.90;;;7.70;99.90;;;;;;5041640;28;20057;-62
2021/12/23 08:22:34;;;;;;;39.17;20.83;;;7.80;99.90;;;;;;5044949;28;20049;-61
2021/12/23 08:25:01;;;;;;;36.78;18.80;;;7.80;99.90;;;;;;5043030;28;20049;-62
2021/12/23 08:27:30;;;;;;;36.95;19.05;;;7.80;99.90;;;;;;5044690;28;20052;-62
2021/12/23 08:29:57;;;;;;;33.85;19.23;;;7.80;99.90;;;;;;5044211;28;20041;-61
2021/12/23 08:32:24;;;;;;;34.95;17.90;;;7.70;99.90;;;;;;5046171;28;20064;-61
2021/12/23 08:34:50;;;;;;;40.90;19.40;;;7.80;99.90;;;;;;5045878;28;20074;-61
2021/12/23 08:37:17;;;;;;;40.55;19.95;;;7.80;99.90;;;;;;5047452;28;20094;-62
2021/12/23 08:39:44;;;;;;;40.97;18.65;;;7.90;99.90;;;;;;5044144;28;20053;-63
2021/12/23 08:42:11;;;;;;;35.92;20.20;;;7.90;99.90;;;;;;5044799;28;20106;-62
2021/12/23 08:44:40;;;;;;;39.33;19.67;;;7.90;99.90;;;;;;5047083;28;20515;-63
2021/12/23 08:47:08;;;;;;;35.00;17.33;;;7.90;99.90;;;;;;4694992;28;10000300;-60
2021/12/23 08:49:35;;;;;;;37.90;18.48;;;7.90;99.90;;;;;;5043091;28;20304;-60
2021/12/23 08:52:02;;;;;;;32.92;18.17;;;8.00;99.90;;;;;;5043373;28;20487;-60
2021/12/23 08:54:29;;;;;;;33.25;18.10;;;8.00;99.90;;;;;;5041975;28;20107;-61
2021/12/23 08:56:56;;;;;;;41.42;19.95;;;8.00;99.90;;;;;;5044442;28;20180;-59
2021/12/23 08:59:23;;;;;;;30.52;17.65;;;8.00;99.90;;;;;;5044572;28;20080;-63
2021/12/23 09:01:50;;;;;;;38.83;19.13;;;8.00;99.90;;;;;;5041001;28;20139;-60
2021/12/23 09:04:17;;;;;;;34.58;17.77;;;8.00;99.90;;;;;;5042584;28;20055;-61
2021/12/23 09:06:44;;;;;;;35.75;18.58;;;8.00;99.90;;;;;;5042801;28;20068;-61
2021/12/23 09:09:11;;;;;;;39.30;18.42;;;8.10;99.90;;;;;;5043025;28;20049;-61
2021/12/23 09:11:38;;;;;;;39.78;19.45;;;8.00;99.90;;;;;;5041207;28;20385;-61
2021/12/23 09:14:05;;;;;;;39.13;20.10;;;8.00;99.90;;;;;;5041835;28;20073;-62
2021/12/23 09:16:31;;;;;;;29.08;17.90;;;8.10;99.90;;;;;;5041742;28;20076;-61
2021/12/23 09:18:58;;;;;;;35.20;17.95;;;8.10;99.90;;;;;;5041404;28;20053;-61
2021/12/23 09:21:25;;;;;;;36.60;18.83;;;8.20;99.90;;;;;;5043192;28;20041;-60
2021/12/23 09:24:00;;;;;;;34.35;18.80;;;8.20;99.90;;;;;;5028438;28;20057;-61
2021/12/23 09:26:28;;;;;;;38.05;17.83;;;8.20;99.90;;;;;;5046046;28;20072;-61
2021/12/23 09:34:36;;;;;;;31.48;18.55;;;8.20;99.90;;;;;;5046953;28;20131;-61
2021/12/23 09:37:03;;;;;;;39.80;20.02;;;8.30;99.90;;;;;;5047104;28;20052;-60
2021/12/23 09:39:29;;;;;;;37.17;18.95;;;8.30;99.90;;;;;;5046075;28;20045;-61
2021/12/23 09:41:56;;;;;;;36.67;18.77;;;8.30;99.90;;;;;;5047498;28;20099;-61
2021/12/23 09:44:23;;;;;;;27.55;16.63;;;8.30;99.90;;;;;;5047245;28;20064;-61
2021/12/23 09:46:50;;;;;;;38.75;19.77;;;8.30;99.90;;;;;;5047141;28;20045;-60
2021/12/23 09:49:17;;;;;;;36.25;19.50;;;8.40;99.90;;;;;;5045334;28;20092;-60
2021/12/23 09:51:43;;;;;;;32.72;16.23;;;8.40;99.90;;;;;;5045809;28;20484;-60
2021/12/23 09:54:10;;;;;;;37.78;18.63;;;8.40;99.90;;;;;;5046096;28;20242;-60
2021/12/23 09:56:37;;;;;;;37.42;19.58;;;8.40;99.90;;;;;;5045206;28;20045;-68
2021/12/23 09:59:08;;;;;;;36.28;19.45;;;8.40;99.90;;;;;;5029509;28;20128;-60
2021/12/23 10:01:36;;;;;;;30.77;17.77;;;8.50;99.90;;;;;;5044984;28;20063;-60
2021/12/23 10:04:03;;;;;;;34.88;19.35;;;8.50;99.90;;;;;;5046151;28;20392;-60
2021/12/23 10:06:30;;;;;;;27.77;17.02;;;8.50;99.90;;;;;;5047712;28;20122;-63
2021/12/23 10:08:57;;;;;;;28.02;18.90;;;8.50;99.90;;;;;;5045727;28;20044;-59
2021/12/23 10:31:02;;;;;;;30.58;17.50;;;8.80;99.90;;;;;;5046720;28;20072;-60
2021/12/23 10:33:49;;;;;;;38.35;17.88;;;8.80;99.90;;;;;;5040663;28;20044;-60
2021/12/23 10:37:15;;;;;;;28.88;17.30;;;9.00;99.90;;;;;;5046301;28;20095;-60
2021/12/23 10:39:05;;;;;;;33.25;15.82;;;8.90;99.90;;;;;;5029901;28;20122;-60
2021/12/23 10:41:35;;;;;;;26.70;16.60;;;9.00;99.90;;;;;;5038412;28;20044;-60
2021/12/23 10:44:03;;;;;;;27.58;17.27;;;9.00;99.80;;;;;;5046836;28;20048;-60
2021/12/23 10:46:31;;;;;;;28.58;16.38;;;9.00;99.80;;;;;;5045036;28;20052;-61
2021/12/23 10:49:29;;;;;;;34.30;19.98;;;9.10;99.90;;;;;;5041765;28;20504;-61
2021/12/23 10:52:02;;;;;;;35.50;17.27;;;9.10;99.90;;;;;;5040623;28;20053;-61
2021/12/23 11:00:22;;;;;;;32.05;18.83;;;9.20;99.90;;;;;;5041770;28;20237;-60
2021/12/23 11:03:29;;;;;;;;;;;9.20;99.90;;;;;;5044889;28;20088;-62
2021/12/23 11:06:18;;;;;;;31.10;17.25;;;9.20;99.90;;;;;;5045836;28;20294;-60
2021/12/23 11:08:48;;;;;;;34.28;18.45;;;9.20;99.80;;;;;;5045430;28;20083;-60
2021/12/23 11:36:35;;;;;;;32.45;17.50;;;9.00;99.90;;;;;;5045183;28;20053;-60
2021/12/23 11:42:01;;;;;;;34.15;18.38;;;9.00;99.90;;;;;;5041090;28;20230;-62
2021/12/23 11:44:31;;;;;;;34.25;18.10;;;9.00;99.90;;;;;;5043509;28;20041;-61
2021/12/23 11:47:02;;;;;;;31.23;17.25;;;9.10;99.90;;;;;;5041443;28;20099;-61
2021/12/23 11:49:29;;;;;;;32.13;17.65;;;9.10;99.90;;;;;;5043623;28;20519;-61
2021/12/23 11:51:56;;;;;;;40.60;21.27;;;9.20;99.90;;;;;;5045197;28;20044;-61
2021/12/23 11:54:33;;;;;;;34.88;17.60;;;9.30;99.90;;;;;;5044505;28;20075;-61
2021/12/23 11:57:10;;;;;;;35.80;17.80;;;9.20;99.90;;;;;;5044077;28;20468;-61
2021/12/23 11:59:40;;;;;;;31.30;18.17;;;9.40;99.90;;;;;;5044198;28;20117;-61
2021/12/23 12:02:14;;;;;;;28.45;16.23;;;9.50;99.90;;;;;;5043388;28;20045;-61
2021/12/23 12:04:41;;;;;;;32.42;15.93;;;9.50;99.90;;;;;;5043102;28;20049;-60
2021/12/23 12:07:16;;;;;;;32.03;16.15;;;9.60;99.90;;;;;;5044092;28;20080;-60
2021/12/23 12:10:05;;;;;;;30.33;16.95;;;9.50;99.90;;;;;;5045741;28;20087;-60
2021/12/23 12:12:33;;;;;;;32.38;17.10;;;9.80;99.90;;;;;;5039799;28;20094;-60
2021/12/23 12:15:00;;;;;;;35.58;17.40;;;9.80;99.90;;;;;;5044525;28;20064;-61
2021/12/23 12:17:33;;;;;;;31.33;16.15;;;9.80;99.90;;;;;;5042529;28;20068;-61
2021/12/23 12:20:34;;;;;;;26.33;15.70;;;9.80;99.90;;;;;;5042244;28;20059;-61
2021/12/23 12:23:22;;;;;;;31.85;15.93;;;9.90;99.90;;;;;;5040198;28;20048;-60
2021/12/23 12:25:56;;;;;;;27.88;14.73;;;9.90;99.90;;;;;;5045450;28;20076;-62
2021/12/23 12:28:28;;;;;;;27.23;15.00;;;10.00;99.90;;;;;;5044060;28;20326;-64
2021/12/23 12:30:56;;;;;;;28.25;14.70;;;10.10;99.90;;;;;;5043658;28;20492;-60
2021/12/23 12:33:26;;;;;;;29.55;14.63;;;10.00;99.90;;;;;;5044773;28;20049;-63
2021/12/23 12:36:05;;;;;;;24.40;14.27;;;10.00;99.90;;;;;;5043531;28;20048;-61
2021/12/23 12:38:35;;;;;;;25.05;13.65;;;10.10;99.90;;;;;;5043830;28;20052;-61
2021/12/23 12:41:08;;;;;;;25.85;13.32;;;10.20;99.90;;;;;;5044377;28;20166;-61
2021/12/23 12:43:40;;;;;;;30.77;15.25;;;10.20;99.90;;;;;;5043193;28;20098;-61
2021/12/23 12:46:07;;;;;;;23.55;12.93;;;10.30;99.90;;;;;;5043272;28;20048;-61
2021/12/23 12:48:56;;;;;;;20.00;13.43;;;10.30;99.90;;;;;;5044512;28;20084;-61
2021/12/23 12:51:35;;;;;;;27.73;13.05;;;10.30;99.90;;;;;;5042607;28;20075;-60
2021/12/23 12:54:05;;;;;;;24.83;12.32;;;10.30;99.90;;;;;;5042532;28;20057;-61
2021/12/23 12:56:48;;;;;;;20.92;11.40;;;10.30;99.90;;;;;;5044772;28;20049;-61
2021/12/23 12:59:15;;;;;;;19.42;11.82;;;10.40;99.90;;;;;;5046493;28;20056;-61
2021/12/23 13:01:47;;;;;;;23.30;11.77;;;10.40;99.90;;;;;;5047990;28;20534;-60
2021/12/23 13:04:32;;;;;;;23.90;11.23;;;10.40;99.90;;;;;;5048629;28;20435;-61
2021/12/23 13:06:59;;;;;;;;;;;10.50;99.90;;;;;;5048556;28;20405;-61
2021/12/23 13:09:29;;;;;;;17.35;9.85;;;10.40;99.90;;;;;;5049720;28;20295;-61
2021/12/23 13:11:59;;;;;;;18.05;9.93;;;10.50;99.90;;;;;;5031174;28;20049;-60
2021/12/23 13:15:16;;;;;;;14.38;8.70;;;10.50;99.90;;;;;;5047947;28;20061;-60
2021/12/23 13:18:05;;;;;;;16.63;7.40;;;10.60;99.90;;;;;;5047349;28;20053;-60
2021/12/23 13:20:58;;;;;;;14.82;8.90;;;10.60;99.90;;;;;;5048122;28;20088;-60
2021/12/23 13:23:32;;;;;;;14.32;7.57;;;10.60;99.90;;;;;;5047702;28;20060;-60
2021/12/23 13:26:07;;;;;;;14.73;8.48;;;10.60;99.90;;;;;;5047446;28;20118;-60
2021/12/23 13:28:40;;;;;;;19.33;8.73;;;10.60;99.90;;;;;;5046148;28;20107;-61
2021/12/23 13:31:20;;;;;;;18.63;9.82;;;10.60;99.90;;;;;;5047674;28;20057;-61
2021/12/23 13:33:50;;;;;;;14.20;8.38;;;10.60;99.90;;;;;;5046691;28;20148;-61
2021/12/23 13:36:22;;;;;;;17.83;8.75;;;10.60;99.90;;;;;;5048094;28;20091;-62
2021/12/23 13:39:09;;;;;;;14.63;8.82;;;10.60;99.90;;;;;;5048058;28;20060;-61
2021/12/23 13:41:42;;;;;;;14.77;7.95;;;10.60;99.90;;;;;;5048815;28;20104;-62
2021/12/23 13:44:14;;;;;;;16.43;9.10;;;10.50;99.90;;;;;;5050000;28;20071;-61
2021/12/23 13:47:03;;;;;;;13.57;7.47;;;10.50;99.90;;;;;;5051064;28;20306;-61
2021/12/23 13:49:37;;;;;;;11.63;7.28;;;10.50;99.90;;;;;;5049674;28;20053;-61
2021/12/23 13:52:09;;;;;;;13.95;7.22;;;10.50;99.90;;;;;;5048861;28;20680;-61
2021/12/23 13:54:40;;;;;;;11.05;6.35;;;10.50;99.90;;;;;;5045077;28;20076;-61